Time;durP1;ratioP1;P1;durP2;ratioP2;P2;SDS_P1;SDS_P2;PMS_P1;PMS_P2;Temp;Humidity;BMP_temperature;BMP_pressure;BME280_temperature;BME280_humidity;BME280_pressure;Samples;Min_cycle;Max_cycle;Signal;HPM_P1;HPM_P2
2022/03/15 00:00:13;;;;;;;10.35;4.03;;;5.70;99.90;;;;;;6712454;88;20239;-79
2022/03/15 00:10:15;;;;;;;11.45;3.78;;;5.60;99.90;;;;;;6709231;88;20260;-78
2022/03/15 00:20:18;;;;;;;8.85;3.92;;;5.80;99.90;;;;;;6720698;88;20189;-78
2022/03/15 00:30:20;;;;;;;10.38;3.72;;;5.80;99.90;;;;;;6717697;88;20192;-79
2022/03/15 00:40:22;;;;;;;7.32;3.78;;;5.80;99.90;;;;;;6727247;88;20238;-78
2022/03/15 00:50:23;;;;;;;8.90;3.95;;;5.70;99.90;;;;;;6729005;88;20201;-78
2022/03/15 01:00:27;;;;;;;9.52;3.55;;;5.50;99.90;;;;;;6737698;88;20209;-78
2022/03/15 01:10:28;;;;;;;9.00;3.62;;;5.80;99.90;;;;;;6742512;88;20252;-77
2022/03/15 01:20:28;;;;;;;10.23;3.78;;;5.90;99.90;;;;;;6735492;88;20203;-78
2022/03/15 01:30:30;;;;;;;7.28;3.62;;;6.00;99.90;;;;;;6745017;88;20188;-79
2022/03/15 01:40:30;;;;;;;10.00;3.83;;;5.80;99.90;;;;;;6740591;88;20247;-78
2022/03/15 01:50:31;;;;;;;9.50;3.70;;;5.80;99.90;;;;;;6728712;88;20214;-79
2022/03/15 02:00:32;;;;;;;9.35;3.65;;;5.70;99.90;;;;;;6721478;88;20621;-79
2022/03/15 02:10:32;;;;;;;6.57;3.30;;;6.00;99.90;;;;;;6721810;88;20213;-78
2022/03/15 02:20:34;;;;;;;11.18;3.70;;;5.80;99.90;;;;;;6722056;88;20213;-78
2022/03/15 02:30:34;;;;;;;7.45;3.75;;;5.90;99.90;;;;;;6722125;88;20214;-79
2022/03/15 02:40:35;;;;;;;6.97;3.45;;;5.60;99.90;;;;;;6721113;88;20194;-78
2022/03/15 02:50:35;;;;;;;9.55;3.10;;;5.50;99.90;;;;;;6721654;88;20215;-78
2022/03/15 03:00:36;;;;;;;8.85;3.70;;;5.60;99.90;;;;;;6717427;88;20311;-77
2022/03/15 03:10:37;;;;;;;9.05;3.53;;;5.40;99.90;;;;;;6722380;88;20242;-78
2022/03/15 03:20:37;;;;;;;12.35;4.07;;;5.40;99.90;;;;;;6722489;88;20377;-77
2022/03/15 03:30:38;;;;;;;9.95;3.85;;;5.40;99.90;;;;;;6718409;88;20217;-77
2022/03/15 03:40:39;;;;;;;12.70;4.25;;;5.50;99.90;;;;;;6723032;88;20204;-79
2022/03/15 03:50:40;;;;;;;10.45;3.58;;;5.40;99.90;;;;;;6722415;88;21237;-76
2022/03/15 04:00:41;;;;;;;9.30;3.65;;;5.40;99.90;;;;;;6721928;88;20233;-79
2022/03/15 04:10:45;;;;;;;9.98;4.00;;;5.30;99.90;;;;;;6727286;88;20208;-78
2022/03/15 04:20:45;;;;;;;11.20;4.05;;;5.40;99.90;;;;;;6724702;88;20639;-78
2022/03/15 04:30:46;;;;;;;9.88;3.62;;;5.20;99.90;;;;;;6722211;88;20302;-78
2022/03/15 04:40:46;;;;;;;10.30;3.80;;;5.40;99.90;;;;;;6717254;88;20196;-78
2022/03/15 04:50:47;;;;;;;9.75;3.40;;;5.60;99.90;;;;;;6716578;88;20193;-79
2022/03/15 05:00:47;;;;;;;6.47;3.25;;;5.60;99.90;;;;;;6717558;88;20599;-78
2022/03/15 05:11:06;;;;;;;12.77;3.45;;;5.40;99.90;;;;;;6716458;88;20188;-78
2022/03/15 05:21:08;;;;;;;13.00;3.80;;;5.40;99.90;;;;;;6717077;88;20252;-79
2022/03/15 05:31:09;;;;;;;9.52;3.60;;;5.60;99.90;;;;;;6722089;77;20192;-76
2022/03/15 05:41:10;;;;;;;8.77;3.67;;;5.80;99.90;;;;;;6732555;88;20598;-76
2022/03/15 05:51:11;;;;;;;7.78;3.60;;;5.80;99.90;;;;;;6734419;88;20204;-76
2022/03/15 06:01:12;;;;;;;9.05;3.97;;;5.80;99.90;;;;;;6730436;88;20734;-76
2022/03/15 06:11:13;;;;;;;10.90;3.20;;;5.80;99.90;;;;;;6740139;88;20219;-76
2022/03/15 06:21:13;;;;;;;9.73;3.22;;;6.00;99.90;;;;;;6741144;88;20322;-75
2022/03/15 06:31:14;;;;;;;7.45;2.92;;;6.20;99.90;;;;;;6741680;88;20287;-76
2022/03/15 06:41:14;;;;;;;6.60;2.70;;;6.30;99.90;;;;;;6729841;88;20176;-75
2022/03/15 06:51:15;;;;;;;6.78;2.25;;;6.60;99.90;;;;;;6734543;88;20896;-76
2022/03/15 07:01:16;;;;;;;6.82;2.20;;;6.90;99.90;;;;;;6734277;88;22225;-75
2022/03/15 07:11:16;;;;;;;6.83;2.40;;;7.10;99.90;;;;;;6734811;88;20226;-76
2022/03/15 07:21:17;;;;;;;7.25;2.10;;;7.50;99.90;;;;;;6744211;88;20611;-77
2022/03/15 07:31:17;;;;;;;10.05;2.50;;;7.60;99.90;;;;;;6741877;88;20267;-77
2022/03/15 07:41:21;;;;;;;4.70;2.12;;;7.80;99.90;;;;;;6738235;88;20262;-77
2022/03/15 07:51:22;;;;;;;6.55;2.37;;;8.00;99.90;;;;;;6753147;88;20802;-77
2022/03/15 08:01:22;;;;;;;8.53;2.50;;;8.00;99.90;;;;;;6747973;88;20196;-79
2022/03/15 08:11:24;;;;;;;11.48;3.03;;;8.30;99.90;;;;;;6747281;88;20534;-77
2022/03/15 08:21:26;;;;;;;8.45;2.97;;;8.50;99.90;;;;;;6747198;88;20209;-77
2022/03/15 08:31:26;;;;;;;7.47;2.92;;;8.50;99.90;;;;;;6748869;88;20210;-77
2022/03/15 08:41:27;;;;;;;7.53;2.72;;;8.60;99.90;;;;;;6751586;88;20617;-78
2022/03/15 08:51:27;;;;;;;10.27;3.15;;;8.60;99.90;;;;;;6751677;88;20201;-78
2022/03/15 09:01:28;;;;;;;7.68;2.08;;;9.00;99.90;;;;;;6752332;88;20717;-79
2022/03/15 09:11:30;;;;;;;8.43;3.00;;;9.00;99.90;;;;;;6755610;88;20213;-78
2022/03/15 09:21:31;;;;;;;8.90;2.50;;;9.00;99.90;;;;;;6733926;88;20198;-78
2022/03/15 09:31:31;;;;;;;5.90;2.75;;;9.00;99.90;;;;;;6730121;88;20692;-77
2022/03/15 09:41:37;;;;;;;7.87;3.08;;;9.10;99.90;;;;;;6733583;88;20664;-78
2022/03/15 09:51:39;;;;;;;11.17;3.03;;;9.00;99.90;;;;;;6732323;88;20194;-79
2022/03/15 10:01:40;;;;;;;11.25;3.20;;;9.20;99.90;;;;;;6733754;88;20189;-77
2022/03/15 10:11:41;;;;;;;7.35;2.85;;;9.20;99.90;;;;;;6730113;88;20848;-77
2022/03/15 10:21:50;;;;;;;10.52;3.53;;;9.20;99.90;;;;;;6743183;88;20189;-77
2022/03/15 10:31:51;;;;;;;9.32;3.70;;;9.00;99.90;;;;;;6740237;88;20217;-77
2022/03/15 10:41:56;;;;;;;6.72;3.28;;;9.00;99.90;;;;;;6746422;88;20189;-78
2022/03/15 10:51:57;;;;;;;8.13;3.37;;;9.10;99.90;;;;;;6738028;88;20266;-76
2022/03/15 11:01:58;;;;;;;8.85;3.17;;;9.00;99.90;;;;;;6748588;88;20349;-77
2022/03/15 11:12:05;;;;;;;8.35;3.28;;;9.00;99.90;;;;;;6732408;88;20201;-77
2022/03/15 11:22:07;;;;;;;8.38;3.85;;;9.10;99.90;;;;;;6732695;88;20195;-78
2022/03/15 11:32:07;;;;;;;7.57;3.70;;;8.80;99.90;;;;;;6726433;88;20273;-77
2022/03/15 11:42:12;;;;;;;7.45;3.70;;;9.00;99.90;;;;;;6736994;88;20187;-78
2022/03/15 11:52:50;;;;;;;10.75;4.00;;;8.70;99.90;;;;;;6737449;88;20210;-77
2022/03/15 12:02:51;;;;;;;9.30;4.30;;;9.00;99.90;;;;;;6722586;88;20271;-77
2022/03/15 12:13:02;;;;;;;10.23;4.62;;;9.00;99.90;;;;;;6734332;88;20226;-76
2022/03/15 12:23:05;;;;;;;9.27;4.45;;;9.10;99.90;;;;;;6729857;88;21094;-75
2022/03/15 12:33:06;;;;;;;11.52;4.72;;;9.00;99.90;;;;;;6721657;88;20742;-75
2022/03/15 12:43:07;;;;;;;9.90;4.65;;;9.00;99.90;;;;;;6725215;88;20299;-75
2022/03/15 12:53:14;;;;;;;11.88;5.55;;;8.90;99.90;;;;;;6736052;88;20788;-75
2022/03/15 13:03:17;;;;;;;12.00;5.03;;;8.80;99.90;;;;;;6728631;88;20217;-75
2022/03/15 13:13:18;;;;;;;12.70;4.80;;;8.80;99.90;;;;;;6727066;88;20238;-76
2022/03/15 13:23:20;;;;;;;9.60;4.90;;;8.90;99.90;;;;;;6723803;88;20209;-75
2022/03/15 13:33:38;;;;;;;10.80;4.45;;;8.80;99.90;;;;;;6729591;88;20218;-75
2022/03/15 13:43:41;;;;;;;8.65;4.78;;;8.90;99.90;;;;;;6726166;88;20215;-75
2022/03/15 13:53:45;;;;;;;9.75;4.57;;;9.20;99.90;;;;;;6728902;88;20303;-75
2022/03/15 14:03:46;;;;;;;10.45;5.03;;;9.30;99.90;;;;;;6724869;88;20207;-75
2022/03/15 14:14:03;;;;;;;12.70;4.40;;;9.30;99.90;;;;;;6732063;88;20325;-75
2022/03/15 14:24:04;;;;;;;;;;;10.00;99.90;;;;;;6732332;88;20244;-75
2022/03/15 14:34:10;;;;;;;10.88;4.00;;;10.00;99.90;;;;;;6730953;88;20105;-75
2022/03/15 14:44:12;;;;;;;9.20;4.50;;;10.10;99.90;;;;;;6727078;88;20194;-77
2022/03/15 14:54:12;;;;;;;6.80;3.72;;;10.10;99.90;;;;;;6724209;88;20573;-76
2022/03/15 15:04:13;;;;;;;7.13;3.73;;;9.80;99.90;;;;;;6732538;88;20213;-77
2022/03/15 15:14:14;;;;;;;9.73;4.35;;;9.60;99.90;;;;;;6735834;88;20627;-76
2022/03/15 15:24:16;;;;;;;8.18;4.43;;;9.40;99.90;;;;;;6736502;88;20739;-75
2022/03/15 15:34:19;;;;;;;8.93;4.68;;;9.60;99.90;;;;;;6731833;88;20213;-75
2022/03/15 15:44:27;;;;;;;5.85;3.30;;;9.50;99.90;;;;;;6731892;88;20210;-75
2022/03/15 15:54:29;;;;;;;4.72;3.05;;;9.50;99.90;;;;;;6732129;88;20200;-75
2022/03/15 16:04:30;;;;;;;6.22;2.85;;;9.30;99.90;;;;;;6732209;88;20175;-75
2022/03/15 16:14:30;;;;;;;6.62;2.97;;;9.00;99.90;;;;;;6738057;88;20217;-75
2022/03/15 16:24:31;;;;;;;6.47;3.12;;;8.60;99.90;;;;;;6742785;88;20242;-76
2022/03/15 16:34:32;;;;;;;4.50;2.53;;;8.50;99.90;;;;;;6733159;88;20664;-75
2022/03/15 16:44:32;;;;;;;5.72;3.47;;;8.50;99.90;;;;;;6728356;88;20535;-74
2022/03/15 16:54:37;;;;;;;7.43;3.80;;;8.50;99.90;;;;;;6735668;88;20310;-76
2022/03/15 17:14:56;;;;;;;24.98;9.70;;;8.40;99.90;;;;;;6734546;88;20183;-74
2022/03/15 17:25:03;;;;;;;5.62;3.00;;;8.40;99.90;;;;;;6743219;88;20210;-79
2022/03/15 17:35:24;;;;;;;4.70;2.95;;;8.40;99.90;;;;;;6756681;77;20225;-77
2022/03/15 17:45:25;;;;;;;4.78;3.00;;;8.40;99.90;;;;;;6689922;88;20221;-77
2022/03/15 17:55:26;;;;;;;6.45;3.10;;;8.30;99.90;;;;;;6683694;89;20195;-79
2022/03/15 18:05:29;;;;;;;8.07;3.70;;;8.30;99.90;;;;;;6690870;88;20194;-77
2022/03/15 18:15:34;;;;;;;6.57;3.37;;;8.00;99.90;;;;;;6678436;88;20313;-78
2022/03/15 18:25:36;;;;;;;8.33;3.93;;;7.90;99.90;;;;;;6680906;88;20254;-79
2022/03/15 18:35:39;;;;;;;21.70;9.57;;;7.80;99.90;;;;;;6706258;87;20218;-78
2022/03/15 18:46:09;;;;;;;7.53;4.40;;;7.60;99.90;;;;;;6755392;88;20173;-78
2022/03/15 18:56:12;;;;;;;8.88;4.60;;;7.60;99.90;;;;;;6749153;88;20183;-78
2022/03/15 19:06:12;;;;;;;7.80;4.43;;;7.50;99.90;;;;;;6751973;88;20943;-77
2022/03/15 19:16:14;;;;;;;7.00;4.40;;;7.40;99.90;;;;;;6750687;88;20191;-75
2022/03/15 19:26:19;;;;;;;8.05;4.12;;;7.40;99.90;;;;;;6756770;88;20322;-77
2022/03/15 19:36:20;;;;;;;7.78;4.22;;;7.40;99.90;;;;;;6753358;88;20238;-78
2022/03/15 19:46:24;;;;;;;21.98;10.20;;;7.10;99.90;;;;;;6747310;88;20229;-76
2022/03/15 19:56:24;;;;;;;9.95;5.70;;;7.10;99.90;;;;;;6738845;88;20205;-75
2022/03/15 20:06:27;;;;;;;10.30;6.72;;;7.00;99.90;;;;;;6739180;88;21191;-76
2022/03/15 20:16:27;;;;;;;16.92;8.45;;;6.70;99.90;;;;;;6737521;88;20674;-76
2022/03/15 20:26:28;;;;;;;14.45;7.95;;;6.70;99.90;;;;;;6739379;88;20374;-76
2022/03/15 20:36:30;;;;;;;14.80;7.90;;;6.40;99.90;;;;;;6743559;87;20211;-77
2022/03/15 20:46:31;;;;;;;14.20;7.40;;;6.20;99.90;;;;;;6742879;88;20198;-77
2022/03/15 20:56:37;;;;;;;16.60;8.35;;;6.00;99.90;;;;;;6750315;88;20205;-79
2022/03/15 21:06:42;;;;;;;14.73;8.73;;;6.00;99.90;;;;;;6747886;88;20195;-78
2022/03/15 21:16:46;;;;;;;15.63;8.70;;;6.00;99.90;;;;;;6739758;88;20493;-77
2022/03/15 21:26:47;;;;;;;14.57;8.57;;;6.00;99.90;;;;;;6738377;88;20207;-78
2022/03/15 21:36:49;;;;;;;16.05;9.90;;;5.80;99.90;;;;;;6738809;88;20603;-76
2022/03/15 21:46:49;;;;;;;17.75;9.32;;;5.70;99.90;;;;;;6746731;88;20329;-77
2022/03/15 21:56:50;;;;;;;19.50;10.45;;;5.60;99.90;;;;;;6740345;88;20349;-77
2022/03/15 22:06:51;;;;;;;18.48;10.80;;;5.60;99.90;;;;;;6733842;88;20205;-77
2022/03/15 22:16:51;;;;;;;20.55;11.55;;;5.60;99.90;;;;;;6747569;88;20599;-77
2022/03/15 22:26:52;;;;;;;17.75;11.02;;;5.40;99.90;;;;;;6742649;88;20625;-77
2022/03/15 23:17:51;;;;;;;24.27;14.30;;;5.10;99.90;;;;;;6748660;88;21014;-76
2022/03/15 23:28:03;;;;;;;25.95;14.65;;;5.10;99.90;;;;;;6750211;88;20392;-76
2022/03/15 23:38:04;;;;;;;25.00;13.75;;;5.00;99.90;;;;;;6746001;87;20769;-78
2022/03/15 23:48:05;;;;;;;25.95;14.43;;;4.70;99.90;;;;;;6747124;88;20188;-78
2022/03/15 23:58:07;;;;;;;28.77;15.80;;;4.80;99.90;;;;;;6742280;88;20262;-79
